createdAt,value
2022-09-21T00:01:37.858Z,5.60
2022-09-21T00:04:06.214Z,7.82
2022-09-21T00:06:37.153Z,8.52
2022-09-21T00:09:09.344Z,6.00
2022-09-21T00:11:39.012Z,4.93
2022-09-21T00:14:10.454Z,7.70
2022-09-21T00:16:38.956Z,4.50
2022-09-21T00:19:07.827Z,6.93
2022-09-21T00:21:38.036Z,6.35
2022-09-21T00:24:07.434Z,4.75
2022-09-21T00:26:35.723Z,5.03
2022-09-21T00:29:05.959Z,4.53
2022-09-21T00:31:34.814Z,6.68
2022-09-21T00:34:07.494Z,6.50
2022-09-21T00:36:35.723Z,5.38
2022-09-21T00:39:04.723Z,5.15
2022-09-21T00:41:34.492Z,5.57
2022-09-21T00:44:26.819Z,5.15
2022-09-21T00:46:57.787Z,3.75
2022-09-21T00:49:28.385Z,6.00
2022-09-21T00:51:59.660Z,4.72
2022-09-21T00:54:30.841Z,4.80
2022-09-21T00:57:02.878Z,6.18
2022-09-21T00:59:34.969Z,4.82
2022-09-21T01:02:03.054Z,7.57
2022-09-21T01:04:32.680Z,5.50
2022-09-21T01:07:05.944Z,5.18
2022-09-21T01:09:37.585Z,5.95
2022-09-21T01:12:19.505Z,5.35
2022-09-21T01:15:09.900Z,5.72
2022-09-21T01:17:45.552Z,8.95
2022-09-21T01:20:51.103Z,6.88
2022-09-21T01:23:44.627Z,7.53
2022-09-21T01:26:25.065Z,5.43
2022-09-21T01:29:18.121Z,7.97
2022-09-21T01:31:52.119Z,6.82
2022-09-21T01:34:29.904Z,8.50
2022-09-21T01:37:02.526Z,8.85
2022-09-21T01:39:34.845Z,6.75
2022-09-21T01:42:04.838Z,6.22
2022-09-21T01:44:37.125Z,5.50
2022-09-21T01:47:12.442Z,7.07
2022-09-21T01:49:46.404Z,5.88
2022-09-21T01:52:19.681Z,5.75
2022-09-21T01:54:53.589Z,6.68
2022-09-21T01:57:30.718Z,6.72
2022-09-21T02:00:01.734Z,7.95
2022-09-21T02:02:45.015Z,7.75
2022-09-21T02:05:16.210Z,7.85
2022-09-21T02:07:44.660Z,10.05
2022-09-21T02:10:19.285Z,6.15
2022-09-21T02:12:48.180Z,5.90
2022-09-21T02:15:18.441Z,6.78
2022-09-21T02:17:58.606Z,6.28
2022-09-21T02:20:31.983Z,9.07
2022-09-21T02:23:07.256Z,6.70
2022-09-21T02:25:47.309Z,6.80
2022-09-21T02:28:26.282Z,7.30
2022-09-21T02:31:03.375Z,5.60
2022-09-21T02:33:38.354Z,6.90
2022-09-21T02:36:12.428Z,6.57
2022-09-21T02:38:47.029Z,7.30
2022-09-21T02:41:18.564Z,6.45
2022-09-21T02:43:50.192Z,8.32
2022-09-21T02:46:26.520Z,7.97
2022-09-21T02:48:58.033Z,6.93
2022-09-21T02:51:30.929Z,12.05
2022-09-21T02:54:01.815Z,7.88
2022-09-21T02:56:32.019Z,7.78
2022-09-21T02:59:02.967Z,9.50
2022-09-21T03:01:34.208Z,9.15
2022-09-21T03:04:03.368Z,11.80
2022-09-21T03:06:34.608Z,10.38
2022-09-21T03:09:03.143Z,6.65
2022-09-21T03:11:38.990Z,11.63
2022-09-21T03:14:10.341Z,8.65
2022-09-21T03:16:40.359Z,10.00
2022-09-21T03:19:09.376Z,7.40
2022-09-21T03:21:42.305Z,7.72
2022-09-21T03:24:12.906Z,7.68
2022-09-21T03:26:41.044Z,7.65
2022-09-21T03:29:09.264Z,7.05
2022-09-21T03:31:38.912Z,6.90
2022-09-21T03:34:07.360Z,6.30
2022-09-21T03:36:35.424Z,7.07
2022-09-21T03:39:03.587Z,8.85
2022-09-21T03:41:31.829Z,6.72
2022-09-21T03:44:00.222Z,7.55
2022-09-21T03:46:28.822Z,7.32
2022-09-21T03:48:58.303Z,6.25
2022-09-21T03:51:26.417Z,7.80
2022-09-21T03:53:54.576Z,6.63
2022-09-21T03:56:22.955Z,6.32
2022-09-21T03:58:51.256Z,7.50
2022-09-21T04:01:19.888Z,6.07
2022-09-21T04:03:48.002Z,4.78
2022-09-21T04:06:18.116Z,6.13
2022-09-21T04:08:46.200Z,7.75
2022-09-21T04:11:16.766Z,8.82
2022-09-21T04:13:45.691Z,7.22
2022-09-21T04:16:14.115Z,6.20
2022-09-21T04:18:42.250Z,6.38
2022-09-21T04:21:10.345Z,6.13
2022-09-21T04:23:39.800Z,6.38
2022-09-21T04:26:07.861Z,8.07
2022-09-21T04:28:35.955Z,6.00
2022-09-21T04:31:04.779Z,8.57
2022-09-21T04:33:32.838Z,6.85
2022-09-21T04:36:01.903Z,6.85
2022-09-21T04:38:32.404Z,8.52
2022-09-21T04:41:03.334Z,7.45
2022-09-21T04:43:31.441Z,8.73
2022-09-21T04:46:00.140Z,5.25
2022-09-21T04:48:28.281Z,7.85
2022-09-21T04:50:56.409Z,5.95
2022-09-21T04:53:24.730Z,5.68
2022-09-21T04:55:53.284Z,8.40
2022-09-21T04:58:24.615Z,9.25
2022-09-21T05:00:56.673Z,5.97
2022-09-21T05:03:25.946Z,5.43
2022-09-21T05:05:55.677Z,6.68
2022-09-21T05:08:39.323Z,8.30
2022-09-21T05:11:08.348Z,7.72
2022-09-21T05:13:37.881Z,6.32
2022-09-21T05:16:06.888Z,5.97
2022-09-21T05:18:35.258Z,7.57
2022-09-21T05:21:04.812Z,6.72
2022-09-21T05:23:33.405Z,7.68
2022-09-21T05:26:01.877Z,6.35
2022-09-21T05:28:31.191Z,7.68
2022-09-21T05:31:17.838Z,9.13
2022-09-21T05:33:53.102Z,6.75
2022-09-21T05:36:36.145Z,6.65
2022-09-21T05:39:04.907Z,8.18
2022-09-21T05:41:33.691Z,6.03
2022-09-21T05:44:02.548Z,8.40
2022-09-21T05:46:39.501Z,9.98
2022-09-21T05:49:18.226Z,8.85
2022-09-21T05:51:57.622Z,8.77
2022-09-21T05:54:38.934Z,6.82
2022-09-21T05:57:15.758Z,5.93
2022-09-21T06:00:00.146Z,7.30
2022-09-21T06:02:45.819Z,7.38
2022-09-21T06:05:16.182Z,6.80
2022-09-21T06:07:44.864Z,6.97
2022-09-21T06:10:15.017Z,7.78
2022-09-21T06:12:43.534Z,8.30
2022-09-21T06:15:13.917Z,7.35
2022-09-21T06:17:44.168Z,4.97
2022-09-21T06:20:12.328Z,6.70
2022-09-21T06:22:40.666Z,5.53
2022-09-21T06:25:09.316Z,6.00
2022-09-21T06:27:37.451Z,6.47
2022-09-21T06:30:06.620Z,5.93
2022-09-21T06:32:34.854Z,6.68
2022-09-21T06:35:04.517Z,6.60
2022-09-21T06:37:32.587Z,6.90
2022-09-21T06:40:00.840Z,6.13
2022-09-21T06:42:29.079Z,5.78
2022-09-21T06:44:58.607Z,6.25
2022-09-21T06:47:27.540Z,5.50
2022-09-21T06:49:55.807Z,5.38
2022-09-21T06:52:25.330Z,6.85
2022-09-21T06:54:53.825Z,6.88
2022-09-21T06:57:21.977Z,8.35
2022-09-21T06:59:50.216Z,6.43
2022-09-21T07:02:18.386Z,6.43
2022-09-21T07:04:46.839Z,5.43
2022-09-21T07:07:15.765Z,7.07
2022-09-21T07:12:34.550Z,5.25
2022-09-21T07:15:02.789Z,6.05
2022-09-21T07:17:33.827Z,29.95
2022-09-21T07:20:03.519Z,8.38
2022-09-21T07:22:34.724Z,8.05
2022-09-21T07:25:05.443Z,6.40
2022-09-21T07:27:36.296Z,6.03
2022-09-21T07:30:05.442Z,7.57
2022-09-21T07:32:33.735Z,7.90
2022-09-21T07:35:02.926Z,8.52
2022-09-21T07:37:33.062Z,6.75
2022-09-21T07:40:04.090Z,5.28
2022-09-21T07:42:34.704Z,6.97
2022-09-21T07:45:04.374Z,6.13
2022-09-21T07:47:35.612Z,5.40
2022-09-21T07:50:03.712Z,7.10
2022-09-21T07:52:31.838Z,6.68
2022-09-21T07:54:59.976Z,5.65
2022-09-21T07:57:46.373Z,6.25
2022-09-21T08:00:16.790Z,5.45
2022-09-21T08:02:47.650Z,5.38
2022-09-21T08:05:16.664Z,4.80
2022-09-21T08:07:44.933Z,6.75
2022-09-21T08:10:13.098Z,4.82
2022-09-21T08:12:41.338Z,3.92
2022-09-21T08:15:30.493Z,3.90
2022-09-21T08:18:02.743Z,5.97
2022-09-21T08:20:30.941Z,4.07
2022-09-21T08:23:00.022Z,3.28
2022-09-21T08:25:28.399Z,3.72
2022-09-21T08:28:00.699Z,3.33
2022-09-21T08:30:31.038Z,4.60
2022-09-21T08:33:00.905Z,6.07
2022-09-21T08:35:29.312Z,3.92
2022-09-21T08:37:57.873Z,8.27
2022-09-21T08:40:26.193Z,4.90
2022-09-21T08:43:01.355Z,5.70
2022-09-21T08:45:35.568Z,3.53
2022-09-21T08:48:13.309Z,2.80
2022-09-21T08:50:46.690Z,4.18
2022-09-21T08:53:18.987Z,2.83
2022-09-21T08:55:47.480Z,3.05
2022-09-21T08:58:23.362Z,4.25
2022-09-21T09:01:06.950Z,3.08
2022-09-21T09:04:03.754Z,3.50
2022-09-21T09:06:46.160Z,2.88
2022-09-21T09:09:32.950Z,3.03
2022-09-21T09:12:22.934Z,4.68
2022-09-21T09:15:11.474Z,4.20
2022-09-21T09:17:50.916Z,2.15
2022-09-21T09:20:25.998Z,4.35
2022-09-21T09:23:04.639Z,2.97
2022-09-21T09:25:37.559Z,3.25
2022-09-21T09:28:19.032Z,5.93
2022-09-21T09:30:48.483Z,3.33
2022-09-21T09:33:22.745Z,2.97
2022-09-21T09:35:58.949Z,3.05
2022-09-21T09:38:31.903Z,2.75
2022-09-21T09:41:21.501Z,2.92
2022-09-21T09:44:04.089Z,2.92
2022-09-21T09:46:36.138Z,2.85
2022-09-21T09:49:18.357Z,2.85
2022-09-21T09:51:49.205Z,3.83
2022-09-21T09:54:19.219Z,3.28
2022-09-21T09:56:47.312Z,2.97
2022-09-21T09:59:25.725Z,4.07
2022-09-21T10:02:03.691Z,3.30
2022-09-21T10:04:33.486Z,2.75
2022-09-21T10:07:03.416Z,2.40
2022-09-21T10:09:34.190Z,2.10
2022-09-21T10:12:09.485Z,3.30
2022-09-21T10:14:38.782Z,2.45
2022-09-21T10:17:09.092Z,1.90
2022-09-21T10:19:38.110Z,2.60
2022-09-21T10:22:07.695Z,6.57
2022-09-21T10:24:40.663Z,3.88
2022-09-21T10:27:15.256Z,2.80
2022-09-21T10:29:45.794Z,3.97
2022-09-21T10:32:23.357Z,2.53
2022-09-21T10:35:13.545Z,3.22
2022-09-21T10:37:46.339Z,2.10
2022-09-21T10:40:31.033Z,1.80
2022-09-21T10:43:01.273Z,2.20
2022-09-21T10:45:31.493Z,2.78
2022-09-21T10:48:07.881Z,2.00
2022-09-21T10:50:37.955Z,2.50
2022-09-21T10:53:20.643Z,4.75
2022-09-21T10:56:14.927Z,4.15
2022-09-21T10:59:13.552Z,2.08
2022-09-21T11:01:47.284Z,2.22
2022-09-21T11:04:21.220Z,1.65
2022-09-21T11:06:53.309Z,2.08
2022-09-21T11:09:27.876Z,2.45
2022-09-21T11:12:00.522Z,3.78
2022-09-21T11:14:42.495Z,4.30
2022-09-21T11:17:19.191Z,2.35
2022-09-21T11:19:55.006Z,1.77
2022-09-21T11:22:31.837Z,2.22
2022-09-21T11:25:13.218Z,1.60
2022-09-21T11:27:45.500Z,2.63
2022-09-21T11:30:15.785Z,1.25
2022-09-21T11:33:02.225Z,1.25
2022-09-21T11:35:40.829Z,3.10
2022-09-21T11:38:13.994Z,1.10
2022-09-21T11:41:13.627Z,2.20
2022-09-21T11:43:56.189Z,2.42
2022-09-21T11:46:32.800Z,1.30
2022-09-21T11:49:16.939Z,1.10
2022-09-21T11:51:58.846Z,2.95
2022-09-21T11:54:52.553Z,1.23
2022-09-21T11:57:25.774Z,2.78
2022-09-21T12:00:04.621Z,4.90
2022-09-21T12:03:00.167Z,1.77
2022-09-21T12:05:33.996Z,2.35
2022-09-21T12:08:31.837Z,1.65
2022-09-21T12:11:12.572Z,1.17
2022-09-21T12:13:50.493Z,1.17
2022-09-21T12:16:26.976Z,0.95
2022-09-21T12:19:01.778Z,3.80
2022-09-21T12:21:33.409Z,1.38
2022-09-21T12:24:06.037Z,1.27
2022-09-21T12:26:39.027Z,1.20
2022-09-21T12:29:16.166Z,4.20
2022-09-21T12:31:52.663Z,2.10
2022-09-21T12:34:25.283Z,3.40
2022-09-21T12:37:02.131Z,2.17
2022-09-21T12:39:37.562Z,3.25
2022-09-21T12:42:12.944Z,1.48
2022-09-21T12:44:54.140Z,1.77
2022-09-21T12:47:27.934Z,1.20
2022-09-21T12:50:02.737Z,4.70
2022-09-21T12:52:32.990Z,1.52
2022-09-21T12:55:06.760Z,1.83
2022-09-21T12:58:14.084Z,2.05
2022-09-21T13:00:50.387Z,1.65
2022-09-21T13:03:26.919Z,3.78
2022-09-21T13:06:37.523Z,2.03
2022-09-21T13:09:09.953Z,5.25
2022-09-21T13:11:52.501Z,1.85
2022-09-21T13:14:20.879Z,2.33
2022-09-21T13:16:57.569Z,3.10
2022-09-21T13:19:29.075Z,3.83
2022-09-21T13:22:23.675Z,3.83
2022-09-21T13:25:03.400Z,1.48
2022-09-21T13:28:01.541Z,1.58
2022-09-21T13:30:33.445Z,2.40
2022-09-21T13:33:04.418Z,2.38
2022-09-21T13:35:53.788Z,2.15
2022-09-21T13:38:26.997Z,1.40
2022-09-21T13:41:00.955Z,2.15
2022-09-21T13:44:04.984Z,1.05
2022-09-21T13:46:53.138Z,1.10
2022-09-21T13:49:42.737Z,2.20
2022-09-21T13:52:31.991Z,1.38
2022-09-21T13:55:02.209Z,1.75
2022-09-21T13:57:37.246Z,1.23
2022-09-21T14:00:35.811Z,0.82
2022-09-21T14:03:19.172Z,1.50
2022-09-21T14:05:51.644Z,1.33
2022-09-21T14:08:24.536Z,2.13
2022-09-21T14:10:55.915Z,1.10
2022-09-21T14:13:29.923Z,1.15
2022-09-21T14:16:45.721Z,1.38
2022-09-21T14:20:02.975Z,1.27
2022-09-21T14:23:11.308Z,1.55
2022-09-21T14:25:52.407Z,1.35
2022-09-21T14:28:30.147Z,1.50
2022-09-21T14:31:02.731Z,2.60
2022-09-21T14:33:36.664Z,0.90
2022-09-21T14:36:09.857Z,2.13
2022-09-21T14:38:46.039Z,2.47
2022-09-21T14:41:19.739Z,1.45
2022-09-21T14:43:53.639Z,2.05
2022-09-21T14:46:52.524Z,1.33
2022-09-21T14:49:44.964Z,1.08
2022-09-21T14:52:32.407Z,0.93
2022-09-21T14:55:17.158Z,0.98
2022-09-21T14:58:07.613Z,1.63
2022-09-21T15:00:48.639Z,1.88
2022-09-21T15:03:51.564Z,3.17
2022-09-21T15:06:45.496Z,2.08
2022-09-21T15:09:52.610Z,1.77
2022-09-21T15:12:28.412Z,3.10
2022-09-21T15:15:03.768Z,2.58
2022-09-21T15:17:32.332Z,1.50
2022-09-21T15:20:01.730Z,1.58
2022-09-21T15:22:31.861Z,1.83
2022-09-21T15:25:05.890Z,2.20
2022-09-21T15:27:37.809Z,2.10
2022-09-21T15:30:07.728Z,1.70
2022-09-21T15:32:38.848Z,2.22
2022-09-21T15:35:18.119Z,1.55
2022-09-21T15:37:46.688Z,2.92
2022-09-21T15:40:21.592Z,2.35
2022-09-21T15:43:03.797Z,2.03
2022-09-21T15:45:35.958Z,4.57
2022-09-21T15:48:08.353Z,2.60
2022-09-21T15:50:38.957Z,1.50
2022-09-21T15:53:16.282Z,1.85
2022-09-21T15:55:48.239Z,1.55
2022-09-21T15:58:25.675Z,2.45
2022-09-21T16:00:57.545Z,1.27
2022-09-21T16:03:27.059Z,4.05
2022-09-21T16:06:00.042Z,1.48
2022-09-21T16:08:32.986Z,1.38
2022-09-21T16:11:19.184Z,2.58
2022-09-21T16:14:07.273Z,2.90
2022-09-21T16:17:22.744Z,0.90
2022-09-21T16:20:19.634Z,2.55
2022-09-21T16:22:50.046Z,2.05
2022-09-21T16:25:34.217Z,2.30
2022-09-21T16:28:04.403Z,2.47
2022-09-21T16:30:48.956Z,1.40
2022-09-21T16:33:37.626Z,1.27
2022-09-21T16:36:44.666Z,0.88
2022-09-21T16:39:15.929Z,2.92
2022-09-21T16:41:50.415Z,1.83
2022-09-21T16:44:22.748Z,1.20
2022-09-21T16:46:59.592Z,0.93
2022-09-21T16:49:31.168Z,0.98
2022-09-21T16:52:01.398Z,1.25
2022-09-21T16:54:30.283Z,3.30
2022-09-21T16:57:01.284Z,2.15
2022-09-21T16:59:30.027Z,3.25
2022-09-21T17:02:00.513Z,2.85
2022-09-21T17:04:30.144Z,2.25
2022-09-21T17:07:00.801Z,3.35
2022-09-21T17:09:32.675Z,5.35
2022-09-21T17:12:02.556Z,5.25
2022-09-21T17:14:35.330Z,4.45
2022-09-21T17:17:08.322Z,3.22
2022-09-21T17:19:36.839Z,3.47
2022-09-21T17:22:07.185Z,2.03
2022-09-21T17:24:50.176Z,2.53
2022-09-21T17:27:21.244Z,2.97
2022-09-21T17:29:50.530Z,3.83
2022-09-21T17:32:20.756Z,3.35
2022-09-21T17:34:53.269Z,4.22
2022-09-21T17:37:24.169Z,4.32
2022-09-21T17:39:53.587Z,2.08
2022-09-21T17:42:25.247Z,2.75
2022-09-21T17:45:13.093Z,3.97
2022-09-21T17:47:42.158Z,1.58
2022-09-21T17:50:23.060Z,2.72
2022-09-21T17:53:10.804Z,4.07
2022-09-21T17:55:39.778Z,3.17
2022-09-21T17:58:23.312Z,3.63
2022-09-21T18:00:59.362Z,3.30
2022-09-21T18:03:29.734Z,4.20
2022-09-21T18:06:00.611Z,3.50
2022-09-21T18:08:33.336Z,3.85
2022-09-21T18:11:14.654Z,3.80
2022-09-21T18:13:54.150Z,3.67
2022-09-21T18:16:28.084Z,6.38
2022-09-21T18:19:23.250Z,4.43
2022-09-21T18:21:57.289Z,3.80
2022-09-21T18:24:31.682Z,4.05
2022-09-21T18:27:00.674Z,3.95
2022-09-21T18:29:39.999Z,4.28
2022-09-21T18:32:30.671Z,4.97
2022-09-21T18:35:25.055Z,3.85
2022-09-21T18:38:03.760Z,22.33
2022-09-21T18:40:39.938Z,8.40
2022-09-21T18:43:25.451Z,5.00
2022-09-21T18:46:01.716Z,10.13
2022-09-21T18:48:48.507Z,10.48
2022-09-21T18:51:24.949Z,6.00
2022-09-21T18:53:56.060Z,4.72
2022-09-21T18:56:27.806Z,3.92
2022-09-21T18:58:57.027Z,3.60
2022-09-21T19:01:29.244Z,4.07
2022-09-21T19:03:58.293Z,4.20
2022-09-21T19:06:47.327Z,4.95
2022-09-21T19:09:38.926Z,5.38
2022-09-21T19:12:18.494Z,5.15
2022-09-21T19:14:57.535Z,5.88
2022-09-21T19:17:38.828Z,4.07
2022-09-21T19:20:24.262Z,6.78
2022-09-21T19:22:58.888Z,5.65
2022-09-21T19:25:35.513Z,3.53
2022-09-21T19:28:19.236Z,6.93
2022-09-21T19:30:50.061Z,6.13
2022-09-21T19:33:48.207Z,5.13
2022-09-21T19:36:15.004Z,6.82
2022-09-21T19:38:43.450Z,5.65
2022-09-21T19:41:35.899Z,3.88
2022-09-21T19:44:17.599Z,4.25
2022-09-21T19:46:52.928Z,3.78
2022-09-21T19:49:22.110Z,4.10
2022-09-21T19:51:53.012Z,7.05
2022-09-21T19:54:40.924Z,5.85
2022-09-21T19:57:34.191Z,6.00
2022-09-21T20:00:06.469Z,3.45
2022-09-21T20:02:41.617Z,5.57
2022-09-21T20:05:16.008Z,4.32
2022-09-21T20:07:48.314Z,5.35
2022-09-21T20:10:36.511Z,4.63
2022-09-21T20:13:21.955Z,3.22
2022-09-21T20:15:57.415Z,2.83
2022-09-21T20:18:32.366Z,5.75
2022-09-21T20:21:00.959Z,3.60
2022-09-21T20:23:30.215Z,4.47
2022-09-21T20:26:04.865Z,3.90
2022-09-21T20:28:33.496Z,5.38
2022-09-21T20:31:04.571Z,5.72
2022-09-21T20:33:33.357Z,5.55
2022-09-21T20:36:02.416Z,4.63
2022-09-21T20:38:31.176Z,4.45
2022-09-21T20:40:59.582Z,5.07
2022-09-21T20:43:32.475Z,4.90
2022-09-21T20:46:02.858Z,7.20
2022-09-21T20:48:31.270Z,4.88
2022-09-21T20:51:04.654Z,6.85
2022-09-21T20:53:33.026Z,5.60
2022-09-21T20:56:02.148Z,4.50
2022-09-21T20:58:31.808Z,7.00
2022-09-21T21:01:06.164Z,5.28
2022-09-21T21:03:34.553Z,6.00
2022-09-21T21:06:18.008Z,3.25
2022-09-21T21:08:46.754Z,2.83
2022-09-21T21:11:15.389Z,3.08
2022-09-21T21:13:43.786Z,3.85
2022-09-21T21:16:13.306Z,1.90
2022-09-21T21:18:43.119Z,2.35
2022-09-21T21:21:11.209Z,2.88
2022-09-21T21:23:53.414Z,4.93
2022-09-21T21:26:33.301Z,3.65
2022-09-21T21:29:10.140Z,1.73
2022-09-21T21:31:39.789Z,2.08
2022-09-21T21:34:08.106Z,3.33
2022-09-21T21:36:36.312Z,5.10
2022-09-21T21:39:04.549Z,2.13
2022-09-21T21:41:34.055Z,2.63
2022-09-21T21:44:02.484Z,4.05
2022-09-21T21:46:30.810Z,1.98
2022-09-21T21:49:00.631Z,5.40
2022-09-21T21:51:28.858Z,3.30
2022-09-21T21:53:57.066Z,7.20
2022-09-21T21:56:26.452Z,4.68
2022-09-21T21:58:55.758Z,3.08
2022-09-21T22:01:26.305Z,2.95
2022-09-21T22:03:55.864Z,4.07
2022-09-21T22:06:26.787Z,6.03
2022-09-21T22:08:56.110Z,3.28
2022-09-21T22:11:25.542Z,2.22
2022-09-21T22:13:55.156Z,2.22
2022-09-21T22:16:24.796Z,4.38
2022-09-21T22:18:53.747Z,4.53
2022-09-21T22:21:23.809Z,2.38
2022-09-21T22:23:55.380Z,2.35
2022-09-21T22:26:24.958Z,2.95
2022-09-21T22:28:56.022Z,2.92
2022-09-21T22:31:29.488Z,2.50
2022-09-21T22:33:58.845Z,3.13
2022-09-21T22:36:29.486Z,7.30
2022-09-21T22:38:59.688Z,3.28
2022-09-21T22:41:29.940Z,2.60
2022-09-21T22:43:59.724Z,4.53
2022-09-21T22:46:29.319Z,2.70
2022-09-21T22:48:57.926Z,3.45
2022-09-21T22:51:26.002Z,4.78
2022-09-21T22:53:54.664Z,3.85
2022-09-21T22:56:25.559Z,3.55
2022-09-21T22:58:55.071Z,5.88
2022-09-21T23:01:25.945Z,3.45
2022-09-21T23:03:55.708Z,2.90
2022-09-21T23:06:27.075Z,5.32
2022-09-21T23:08:57.236Z,4.20
2022-09-21T23:11:28.755Z,12.63
2022-09-21T23:13:58.725Z,5.50
2022-09-21T23:16:29.246Z,6.28
2022-09-21T23:18:57.850Z,5.70
2022-09-21T23:21:27.968Z,5.72
2022-09-21T23:23:56.879Z,6.65
2022-09-21T23:26:27.283Z,7.53
2022-09-21T23:28:57.350Z,6.90
2022-09-21T23:31:27.042Z,5.70
2022-09-21T23:33:57.239Z,6.00
2022-09-21T23:36:28.035Z,4.97
2022-09-21T23:38:57.238Z,4.63
2022-09-21T23:41:29.229Z,3.45
2022-09-21T23:43:58.483Z,3.08
2022-09-21T23:46:28.484Z,2.92
2022-09-21T23:48:57.756Z,3.30
2022-09-21T23:51:26.351Z,4.15
2022-09-21T23:53:54.999Z,2.20
2022-09-21T23:56:24.211Z,3.13
2022-09-21T23:58:54.573Z,1.83
